createdAt,value
2023-04-13T00:03:49.943Z,5.40
2023-04-13T00:09:01.567Z,5.40
2023-04-13T00:14:06.934Z,5.40
2023-04-13T00:19:10.565Z,5.40
2023-04-13T00:24:16.091Z,5.40
2023-04-13T00:29:19.621Z,5.50
2023-04-13T00:34:23.820Z,5.50
2023-04-13T00:39:31.373Z,5.40
2023-04-13T00:44:35.102Z,5.50
2023-04-13T00:49:39.135Z,5.60
2023-04-13T00:54:44.997Z,5.80
2023-04-13T00:59:49.667Z,5.80
2023-04-13T01:04:56.183Z,5.80
2023-04-13T01:10:18.338Z,5.70
2023-04-13T01:15:23.372Z,5.70
2023-04-13T01:20:29.674Z,5.40
2023-04-13T01:25:43.099Z,5.20
2023-04-13T01:30:49.025Z,5.10
2023-04-13T01:35:53.177Z,5.00
2023-04-13T01:40:57.688Z,5.00
2023-04-13T01:46:05.419Z,4.90
2023-04-13T01:51:16.890Z,4.90
2023-04-13T01:56:23.257Z,4.90
2023-04-13T02:01:28.791Z,5.00
2023-04-13T02:06:33.350Z,5.00
2023-04-13T02:11:41.878Z,5.10
2023-04-13T02:16:49.168Z,5.00
2023-04-13T02:22:00.964Z,5.00
2023-04-13T02:27:04.692Z,5.20
2023-04-13T02:32:10.173Z,5.20
2023-04-13T02:37:16.419Z,5.30
2023-04-13T02:42:21.882Z,5.10
2023-04-13T02:47:28.821Z,5.00
2023-04-13T02:52:33.380Z,4.70
2023-04-13T02:57:36.897Z,4.70
2023-04-13T03:02:43.275Z,4.70
2023-04-13T03:08:07.065Z,4.80
2023-04-13T03:13:10.612Z,4.90
2023-04-13T03:18:17.347Z,5.10
2023-04-13T03:23:22.402Z,5.40
2023-04-13T03:28:25.979Z,5.80
2023-04-13T03:33:32.105Z,5.60
2023-04-13T03:38:36.733Z,5.60
2023-04-13T03:43:53.894Z,5.60
2023-04-13T03:48:59.942Z,5.60
2023-04-13T03:54:05.988Z,5.50
2023-04-13T03:59:10.936Z,5.50
2023-04-13T04:04:17.537Z,5.50
2023-04-13T04:09:21.247Z,5.60
2023-04-13T04:14:25.887Z,5.50
2023-04-13T04:19:31.243Z,5.60
2023-04-13T04:24:35.433Z,5.60
2023-04-13T04:29:38.803Z,5.60
2023-04-13T04:34:55.568Z,5.20
2023-04-13T04:40:00.493Z,5.10
2023-04-13T04:45:05.738Z,5.00
2023-04-13T04:50:16.802Z,4.90
2023-04-13T04:55:21.116Z,4.90
2023-04-13T05:00:26.895Z,4.90
2023-04-13T05:05:32.311Z,5.00
2023-04-13T05:10:46.405Z,5.10
2023-04-13T05:15:50.026Z,5.20
2023-04-13T05:20:54.958Z,5.40
2023-04-13T05:26:06.591Z,5.60
2023-04-13T05:31:11.750Z,5.60
2023-04-13T05:36:46.349Z,5.70
2023-04-13T05:41:52.742Z,5.80
2023-04-13T05:47:22.303Z,5.80
2023-04-13T05:52:28.709Z,5.90
2023-04-13T05:57:33.139Z,6.00
2023-04-13T06:02:39.197Z,6.00
2023-04-13T06:07:45.076Z,6.00
2023-04-13T06:12:49.108Z,6.20
2023-04-13T06:17:54.066Z,6.10
2023-04-13T06:23:01.825Z,6.10
2023-04-13T06:28:07.331Z,6.00
2023-04-13T06:33:11.484Z,6.10
2023-04-13T06:38:16.273Z,6.20
2023-04-13T06:43:29.243Z,6.30
2023-04-13T06:48:33.612Z,6.80
2023-04-13T06:53:41.208Z,7.00
2023-04-13T06:58:47.919Z,6.90
2023-04-13T07:03:51.533Z,7.30
2023-04-13T07:08:57.204Z,7.70
2023-04-13T07:14:01.230Z,7.60
2023-04-13T07:19:06.478Z,7.30
2023-04-13T07:24:13.454Z,7.40
2023-04-13T07:29:18.292Z,7.50
2023-04-13T07:34:22.323Z,7.50
2023-04-13T07:39:29.631Z,7.30
2023-04-13T07:44:34.191Z,7.40
2023-04-13T07:49:40.476Z,7.60
2023-04-13T07:54:46.290Z,7.70
2023-04-13T07:59:53.454Z,8.10
2023-04-13T08:04:58.197Z,8.30
2023-04-13T08:10:04.319Z,8.40
2023-04-13T08:15:10.277Z,9.50
2023-04-13T08:20:15.020Z,10.10
2023-04-13T08:25:20.284Z,10.70
2023-04-13T08:30:26.217Z,10.60
2023-04-13T08:35:29.697Z,9.70
2023-04-13T08:40:42.335Z,9.70
2023-04-13T08:45:48.125Z,9.70
2023-04-13T08:50:57.947Z,9.40
2023-04-13T08:56:05.763Z,9.00
2023-04-13T09:01:21.975Z,9.50
2023-04-13T09:06:35.207Z,9.90
2023-04-13T09:11:44.535Z,9.90
2023-04-13T09:16:49.217Z,9.60
2023-04-13T09:22:19.918Z,10.10
2023-04-13T09:27:27.521Z,12.90
2023-04-13T09:32:32.828Z,14.70
2023-04-13T09:37:39.921Z,16.20
2023-04-13T09:42:56.657Z,14.70
2023-04-13T09:48:02.955Z,15.00
2023-04-13T09:53:10.799Z,14.00
2023-04-13T09:58:19.583Z,13.10
2023-04-13T10:03:24.129Z,12.80
2023-04-13T10:08:37.625Z,13.10
2023-04-13T10:13:56.359Z,12.50
2023-04-13T10:19:05.606Z,10.80
2023-04-13T10:24:12.924Z,9.20
2023-04-13T10:29:29.333Z,8.90
2023-04-13T10:34:41.215Z,10.60
2023-04-13T10:39:45.041Z,12.80
2023-04-13T10:45:04.568Z,12.80
2023-04-13T10:50:17.936Z,11.90
2023-04-13T10:55:31.191Z,11.00
2023-04-13T11:00:44.616Z,9.80
2023-04-13T11:06:00.891Z,10.10
2023-04-13T11:11:05.704Z,11.60
2023-04-13T11:16:12.699Z,12.30
2023-04-13T11:21:18.931Z,12.80
2023-04-13T11:26:34.012Z,13.10
2023-04-13T11:31:42.674Z,13.10
2023-04-13T11:36:50.050Z,12.30
2023-04-13T11:41:56.010Z,12.40
2023-04-13T11:47:03.165Z,12.10
2023-04-13T11:52:09.959Z,11.60
2023-04-13T11:57:16.059Z,11.50
2023-04-13T12:02:33.648Z,12.30
2023-04-13T12:07:43.138Z,12.60
2023-04-13T12:12:51.693Z,13.50
2023-04-13T12:18:14.716Z,13.80
2023-04-13T12:23:23.604Z,13.90
2023-04-13T12:28:34.365Z,14.10
2023-04-13T12:34:06.736Z,13.10
2023-04-13T12:39:10.368Z,11.00
2023-04-13T12:44:14.803Z,9.10
2023-04-13T12:49:21.866Z,8.00
2023-04-13T12:54:34.012Z,7.60
2023-04-13T12:59:38.357Z,7.90
2023-04-13T13:04:43.471Z,8.70
2023-04-13T13:09:47.049Z,9.40
2023-04-13T13:14:50.590Z,9.80
2023-04-13T13:20:08.024Z,9.30
2023-04-13T13:25:12.548Z,7.80
2023-04-13T13:30:19.168Z,7.00
2023-04-13T13:35:24.247Z,6.60
2023-04-13T13:40:29.116Z,6.90
2023-04-13T13:45:35.205Z,7.10
2023-04-13T13:50:41.879Z,7.60
2023-04-13T13:55:45.420Z,8.10
2023-04-13T14:00:50.811Z,8.10
2023-04-13T14:06:00.473Z,8.10
2023-04-13T14:11:04.320Z,8.40
2023-04-13T14:16:08.890Z,8.70
2023-04-13T14:21:14.325Z,8.60
2023-04-13T14:26:17.776Z,8.50
2023-04-13T14:31:21.283Z,8.30
2023-04-13T14:36:32.804Z,8.30
2023-04-13T14:41:36.947Z,8.20
2023-04-13T14:46:40.721Z,8.20
2023-04-13T14:51:45.824Z,8.40
2023-04-13T14:56:49.469Z,8.20
2023-04-13T15:01:53.456Z,7.90
2023-04-13T15:06:58.884Z,7.60
2023-04-13T15:12:04.418Z,7.40
2023-04-13T15:17:08.658Z,7.50
2023-04-13T15:22:15.659Z,7.80
2023-04-13T15:27:20.869Z,8.20
2023-04-13T15:32:24.503Z,8.40
2023-04-13T15:37:32.523Z,8.70
2023-04-13T15:42:36.299Z,9.00
2023-04-13T15:47:40.216Z,8.70
2023-04-13T15:52:45.554Z,8.40
2023-04-13T15:57:52.250Z,8.10
2023-04-13T16:02:59.016Z,7.80
2023-04-13T16:08:04.410Z,7.60
2023-04-13T16:13:18.792Z,7.50
2023-04-13T16:18:25.441Z,7.10
2023-04-13T16:23:30.565Z,7.00
2023-04-13T16:28:37.414Z,7.10
2023-04-13T16:33:41.907Z,7.10
2023-04-13T16:38:47.732Z,7.40
2023-04-13T16:43:55.315Z,7.50
2023-04-13T16:49:01.427Z,7.50
2023-04-13T16:54:07.721Z,7.50
2023-04-13T16:59:17.951Z,7.40
2023-04-13T17:04:24.965Z,7.30
2023-04-13T17:09:30.408Z,7.10
2023-04-13T17:14:36.710Z,7.10
2023-04-13T17:19:51.149Z,6.90
2023-04-13T17:24:56.794Z,6.70
2023-04-13T17:30:00.207Z,6.70
2023-04-13T17:40:32.544Z,6.60
2023-04-13T17:45:37.352Z,6.40
2023-04-13T17:50:42.534Z,6.30
2023-04-13T17:55:47.320Z,6.10
2023-04-13T18:00:53.965Z,6.10
2023-04-13T18:06:00.717Z,5.90
2023-04-13T18:11:05.744Z,5.70
2023-04-13T18:16:14.089Z,5.80
2023-04-13T18:21:20.854Z,5.60
2023-04-13T18:26:26.513Z,5.50
2023-04-13T18:31:29.938Z,5.40
2023-04-13T18:36:33.697Z,5.20
2023-04-13T18:41:48.617Z,5.10
2023-04-13T18:46:53.072Z,5.00
2023-04-13T18:51:56.512Z,5.00
2023-04-13T18:57:03.107Z,4.90
2023-04-13T19:02:06.519Z,4.70
2023-04-13T19:07:12.121Z,4.60
2023-04-13T19:12:19.205Z,4.60
2023-04-13T19:17:27.275Z,4.50
2023-04-13T19:22:33.433Z,4.40
2023-04-13T19:27:38.147Z,4.20
2023-04-13T19:32:49.543Z,4.20
2023-04-13T19:37:53.247Z,4.30
2023-04-13T19:42:58.059Z,4.30
2023-04-13T19:48:01.694Z,4.30
2023-04-13T19:53:08.210Z,4.50
2023-04-13T19:58:12.939Z,4.50
2023-04-13T20:03:18.352Z,4.50
2023-04-13T20:08:24.235Z,4.40
2023-04-13T20:13:29.022Z,4.30
2023-04-13T20:18:33.453Z,4.30
2023-04-13T20:23:36.762Z,4.20
2023-04-13T20:28:46.576Z,4.20
2023-04-13T20:33:50.031Z,4.20
2023-04-13T20:38:54.451Z,4.10
2023-04-13T20:44:01.245Z,4.10
2023-04-13T20:49:11.350Z,4.10
2023-04-13T20:54:15.574Z,4.00
2023-04-13T20:59:20.442Z,4.00
2023-04-13T21:04:23.803Z,4.10
2023-04-13T21:09:29.206Z,4.10
2023-04-13T21:14:34.192Z,4.00
2023-04-13T21:19:38.284Z,4.10
2023-04-13T21:24:41.707Z,4.10
2023-04-13T21:29:46.658Z,4.10
2023-04-13T21:34:50.019Z,4.10
2023-04-13T21:39:54.856Z,4.10
2023-04-13T21:45:00.004Z,4.10
2023-04-13T21:50:03.539Z,4.10
2023-04-13T21:55:07.630Z,4.10
2023-04-13T22:00:14.718Z,4.10
2023-04-13T22:05:18.404Z,4.10
2023-04-13T22:10:22.066Z,4.10
2023-04-13T22:15:27.149Z,4.10
2023-04-13T22:20:30.745Z,4.10
2023-04-13T22:25:34.261Z,4.10
2023-04-13T22:30:39.153Z,4.10
2023-04-13T22:35:42.670Z,4.10
2023-04-13T22:40:48.839Z,4.10
2023-04-13T22:46:00.230Z,4.10
2023-04-13T22:51:04.158Z,3.90
2023-04-13T22:56:08.216Z,3.90
2023-04-13T23:01:14.102Z,3.90
2023-04-13T23:06:17.813Z,3.90
2023-04-13T23:11:22.854Z,3.90
2023-04-13T23:16:28.909Z,3.90
2023-04-13T23:21:33.581Z,3.80
2023-04-13T23:26:36.989Z,3.80
2023-04-13T23:31:41.829Z,3.80
2023-04-13T23:36:45.281Z,3.80
2023-04-13T23:41:48.696Z,3.80
2023-04-13T23:46:53.559Z,3.80
2023-04-13T23:51:57.166Z,3.70
2023-04-13T23:57:00.815Z,3.70
